sensor_id;sensor_type;location;lat;lon;timestamp;P1;durP1;ratioP1;P2;durP2;ratioP2
70075;SDS011;63241;51.056;3.698;2023-05-19T00:02:12;35.08;;;18.07;;
70075;SDS011;63241;51.056;3.698;2023-05-19T00:05:02;36.20;;;17.25;;
70075;SDS011;63241;51.056;3.698;2023-05-19T00:07:49;29.65;;;17.10;;
70075;SDS011;63241;51.056;3.698;2023-05-19T00:10:38;30.90;;;17.65;;
70075;SDS011;63241;51.056;3.698;2023-05-19T00:13:25;36.88;;;19.00;;
70075;SDS011;63241;51.056;3.698;2023-05-19T00:16:12;36.08;;;18.02;;
70075;SDS011;63241;51.056;3.698;2023-05-19T00:18:59;37.58;;;19.85;;
70075;SDS011;63241;51.056;3.698;2023-05-19T00:21:46;36.95;;;19.30;;
70075;SDS011;63241;51.056;3.698;2023-05-19T00:24:33;37.17;;;19.65;;
70075;SDS011;63241;51.056;3.698;2023-05-19T00:27:19;37.75;;;18.98;;
70075;SDS011;63241;51.056;3.698;2023-05-19T00:30:06;28.73;;;17.37;;
70075;SDS011;63241;51.056;3.698;2023-05-19T00:32:52;34.50;;;19.05;;
70075;SDS011;63241;51.056;3.698;2023-05-19T00:35:39;35.35;;;20.15;;
70075;SDS011;63241;51.056;3.698;2023-05-19T00:38:25;34.00;;;18.95;;
70075;SDS011;63241;51.056;3.698;2023-05-19T00:41:11;36.90;;;21.05;;
70075;SDS011;63241;51.056;3.698;2023-05-19T00:43:58;34.53;;;19.98;;
70075;SDS011;63241;51.056;3.698;2023-05-19T00:46:44;38.20;;;20.35;;
70075;SDS011;63241;51.056;3.698;2023-05-19T00:49:31;37.33;;;20.30;;
70075;SDS011;63241;51.056;3.698;2023-05-19T00:52:17;40.60;;;20.17;;
70075;SDS011;63241;51.056;3.698;2023-05-19T00:55:03;42.35;;;22.05;;
70075;SDS011;63241;51.056;3.698;2023-05-19T00:57:49;49.05;;;22.20;;
70075;SDS011;63241;51.056;3.698;2023-05-19T01:00:36;41.75;;;21.40;;
70075;SDS011;63241;51.056;3.698;2023-05-19T01:03:23;32.38;;;19.55;;
70075;SDS011;63241;51.056;3.698;2023-05-19T01:06:09;39.78;;;22.35;;
70075;SDS011;63241;51.056;3.698;2023-05-19T01:08:55;40.45;;;21.62;;
70075;SDS011;63241;51.056;3.698;2023-05-19T01:11:42;38.98;;;21.15;;
70075;SDS011;63241;51.056;3.698;2023-05-19T01:14:28;42.03;;;21.07;;
70075;SDS011;63241;51.056;3.698;2023-05-19T01:20:15;41.95;;;22.93;;
70075;SDS011;63241;51.056;3.698;2023-05-19T01:34:34;39.63;;;20.12;;
70075;SDS011;63241;51.056;3.698;2023-05-19T01:37:23;35.58;;;20.65;;
70075;SDS011;63241;51.056;3.698;2023-05-19T01:40:11;42.05;;;23.20;;
70075;SDS011;63241;51.056;3.698;2023-05-19T01:42:59;40.38;;;22.70;;
70075;SDS011;63241;51.056;3.698;2023-05-19T01:45:46;51.53;;;22.65;;
70075;SDS011;63241;51.056;3.698;2023-05-19T01:48:34;47.83;;;23.70;;
70075;SDS011;63241;51.056;3.698;2023-05-19T01:51:21;41.85;;;22.73;;
70075;SDS011;63241;51.056;3.698;2023-05-19T01:54:07;53.17;;;23.55;;
70075;SDS011;63241;51.056;3.698;2023-05-19T02:05:17;45.70;;;22.32;;
70075;SDS011;63241;51.056;3.698;2023-05-19T02:10:59;43.63;;;22.98;;
70075;SDS011;63241;51.056;3.698;2023-05-19T02:13:48;42.80;;;21.68;;
70075;SDS011;63241;51.056;3.698;2023-05-19T02:16:36;45.98;;;23.15;;
70075;SDS011;63241;51.056;3.698;2023-05-19T02:19:26;38.55;;;22.80;;
70075;SDS011;63241;51.056;3.698;2023-05-19T02:22:15;43.83;;;21.45;;
70075;SDS011;63241;51.056;3.698;2023-05-19T02:25:01;42.83;;;22.25;;
70075;SDS011;63241;51.056;3.698;2023-05-19T02:27:49;43.33;;;21.37;;
70075;SDS011;63241;51.056;3.698;2023-05-19T02:30:36;41.42;;;20.97;;
70075;SDS011;63241;51.056;3.698;2023-05-19T02:33:22;38.60;;;20.70;;
70075;SDS011;63241;51.056;3.698;2023-05-19T02:36:10;46.73;;;21.73;;
70075;SDS011;63241;51.056;3.698;2023-05-19T02:38:57;35.20;;;19.27;;
70075;SDS011;63241;51.056;3.698;2023-05-19T02:41:45;36.98;;;20.68;;
70075;SDS011;63241;51.056;3.698;2023-05-19T02:44:31;42.95;;;21.55;;
70075;SDS011;63241;51.056;3.698;2023-05-19T02:47:17;41.75;;;20.90;;
70075;SDS011;63241;51.056;3.698;2023-05-19T02:50:04;35.38;;;19.92;;
70075;SDS011;63241;51.056;3.698;2023-05-19T02:52:50;41.08;;;22.30;;
70075;SDS011;63241;51.056;3.698;2023-05-19T02:55:37;37.67;;;20.70;;
70075;SDS011;63241;51.056;3.698;2023-05-19T02:58:23;37.40;;;19.60;;
70075;SDS011;63241;51.056;3.698;2023-05-19T03:01:10;41.88;;;20.40;;
70075;SDS011;63241;51.056;3.698;2023-05-19T03:03:56;38.00;;;20.62;;
70075;SDS011;63241;51.056;3.698;2023-05-19T03:06:43;52.48;;;22.62;;
70075;SDS011;63241;51.056;3.698;2023-05-19T03:09:29;41.68;;;21.37;;
70075;SDS011;63241;51.056;3.698;2023-05-19T03:12:15;42.60;;;22.55;;
70075;SDS011;63241;51.056;3.698;2023-05-19T03:15:02;43.58;;;21.87;;
70075;SDS011;63241;51.056;3.698;2023-05-19T03:17:48;47.50;;;23.75;;
70075;SDS011;63241;51.056;3.698;2023-05-19T03:20:35;45.63;;;22.52;;
70075;SDS011;63241;51.056;3.698;2023-05-19T03:23:22;45.70;;;22.62;;
70075;SDS011;63241;51.056;3.698;2023-05-19T03:26:08;44.75;;;22.32;;
70075;SDS011;63241;51.056;3.698;2023-05-19T03:28:54;53.35;;;22.87;;
70075;SDS011;63241;51.056;3.698;2023-05-19T03:31:41;45.20;;;23.25;;
70075;SDS011;63241;51.056;3.698;2023-05-19T03:34:26;42.98;;;21.42;;
70075;SDS011;63241;51.056;3.698;2023-05-19T03:37:12;49.13;;;23.87;;
70075;SDS011;63241;51.056;3.698;2023-05-19T03:39:59;51.18;;;20.37;;
70075;SDS011;63241;51.056;3.698;2023-05-19T03:42:45;47.88;;;23.15;;
70075;SDS011;63241;51.056;3.698;2023-05-19T03:45:32;52.83;;;22.17;;
70075;SDS011;63241;51.056;3.698;2023-05-19T03:48:18;42.90;;;22.02;;
70075;SDS011;63241;51.056;3.698;2023-05-19T03:51:04;39.70;;;22.27;;
70075;SDS011;63241;51.056;3.698;2023-05-19T03:53:52;51.18;;;22.67;;
70075;SDS011;63241;51.056;3.698;2023-05-19T03:56:39;43.17;;;21.73;;
70075;SDS011;63241;51.056;3.698;2023-05-19T03:59:27;44.63;;;22.52;;
70075;SDS011;63241;51.056;3.698;2023-05-19T04:02:13;42.25;;;21.57;;
70075;SDS011;63241;51.056;3.698;2023-05-19T04:04:59;46.77;;;22.32;;
70075;SDS011;63241;51.056;3.698;2023-05-19T04:07:46;40.80;;;21.95;;
70075;SDS011;63241;51.056;3.698;2023-05-19T04:10:33;46.95;;;22.45;;
70075;SDS011;63241;51.056;3.698;2023-05-19T04:13:20;46.55;;;22.62;;
70075;SDS011;63241;51.056;3.698;2023-05-19T04:16:06;43.10;;;21.48;;
70075;SDS011;63241;51.056;3.698;2023-05-19T04:18:52;41.20;;;20.95;;
70075;SDS011;63241;51.056;3.698;2023-05-19T04:21:39;40.88;;;22.42;;
70075;SDS011;63241;51.056;3.698;2023-05-19T04:24:25;40.73;;;21.27;;
70075;SDS011;63241;51.056;3.698;2023-05-19T04:27:11;36.75;;;21.77;;
70075;SDS011;63241;51.056;3.698;2023-05-19T04:29:59;31.25;;;18.60;;
70075;SDS011;63241;51.056;3.698;2023-05-19T04:32:46;42.80;;;19.48;;
70075;SDS011;63241;51.056;3.698;2023-05-19T04:35:35;38.65;;;19.60;;
70075;SDS011;63241;51.056;3.698;2023-05-19T04:38:21;36.35;;;19.05;;
70075;SDS011;63241;51.056;3.698;2023-05-19T04:41:07;34.23;;;18.50;;
70075;SDS011;63241;51.056;3.698;2023-05-19T04:43:54;38.15;;;19.20;;
70075;SDS011;63241;51.056;3.698;2023-05-19T04:46:41;37.80;;;19.60;;
70075;SDS011;63241;51.056;3.698;2023-05-19T04:49:28;34.15;;;19.23;;
70075;SDS011;63241;51.056;3.698;2023-05-19T04:52:14;32.00;;;18.87;;
70075;SDS011;63241;51.056;3.698;2023-05-19T04:55:02;31.00;;;17.87;;
70075;SDS011;63241;51.056;3.698;2023-05-19T04:57:49;26.52;;;16.25;;
70075;SDS011;63241;51.056;3.698;2023-05-19T05:00:38;24.72;;;14.93;;
70075;SDS011;63241;51.056;3.698;2023-05-19T05:03:24;26.23;;;13.13;;
70075;SDS011;63241;51.056;3.698;2023-05-19T05:06:11;20.62;;;11.88;;
70075;SDS011;63241;51.056;3.698;2023-05-19T05:08:57;16.65;;;9.50;;
70075;SDS011;63241;51.056;3.698;2023-05-19T05:11:47;16.10;;;9.50;;
70075;SDS011;63241;51.056;3.698;2023-05-19T05:14:34;16.35;;;9.30;;
70075;SDS011;63241;51.056;3.698;2023-05-19T05:17:21;17.40;;;8.28;;
70075;SDS011;63241;51.056;3.698;2023-05-19T05:20:09;18.87;;;8.05;;
70075;SDS011;63241;51.056;3.698;2023-05-19T05:22:56;12.63;;;6.90;;
70075;SDS011;63241;51.056;3.698;2023-05-19T05:25:42;13.65;;;6.22;;
70075;SDS011;63241;51.056;3.698;2023-05-19T05:28:28;16.23;;;5.53;;
70075;SDS011;63241;51.056;3.698;2023-05-19T05:31:15;14.50;;;5.45;;
70075;SDS011;63241;51.056;3.698;2023-05-19T05:34:01;13.32;;;6.08;;
70075;SDS011;63241;51.056;3.698;2023-05-19T05:36:47;11.88;;;5.62;;
70075;SDS011;63241;51.056;3.698;2023-05-19T05:39:33;15.65;;;5.92;;
70075;SDS011;63241;51.056;3.698;2023-05-19T05:42:19;24.25;;;6.05;;
70075;SDS011;63241;51.056;3.698;2023-05-19T05:45:06;14.70;;;5.87;;
70075;SDS011;63241;51.056;3.698;2023-05-19T05:47:53;12.63;;;6.05;;
70075;SDS011;63241;51.056;3.698;2023-05-19T05:50:39;13.30;;;5.62;;
70075;SDS011;63241;51.056;3.698;2023-05-19T05:53:29;13.55;;;5.70;;
70075;SDS011;63241;51.056;3.698;2023-05-19T05:56:18;10.10;;;5.45;;
70075;SDS011;63241;51.056;3.698;2023-05-19T05:59:05;10.70;;;5.47;;
70075;SDS011;63241;51.056;3.698;2023-05-19T06:01:51;56.37;;;9.45;;
70075;SDS011;63241;51.056;3.698;2023-05-19T06:04:37;26.97;;;6.62;;
70075;SDS011;63241;51.056;3.698;2023-05-19T06:07:24;13.72;;;6.22;;
70075;SDS011;63241;51.056;3.698;2023-05-19T06:58:09;8.83;;;5.28;;
70075;SDS011;63241;51.056;3.698;2023-05-19T07:00:56;11.12;;;6.03;;
70075;SDS011;63241;51.056;3.698;2023-05-19T07:03:42;10.72;;;5.30;;
70075;SDS011;63241;51.056;3.698;2023-05-19T07:43:16;13.98;;;7.12;;
70075;SDS011;63241;51.056;3.698;2023-05-19T07:46:02;10.55;;;6.35;;
70075;SDS011;63241;51.056;3.698;2023-05-19T07:48:48;11.33;;;9.10;;
70075;SDS011;63241;51.056;3.698;2023-05-19T07:54:53;35.17;;;31.40;;
70075;SDS011;63241;51.056;3.698;2023-05-19T07:57:42;39.35;;;35.13;;
70075;SDS011;63241;51.056;3.698;2023-05-19T08:00:28;50.70;;;45.63;;
70075;SDS011;63241;51.056;3.698;2023-05-19T08:03:24;57.88;;;52.00;;
70075;SDS011;63241;51.056;3.698;2023-05-19T08:09:39;73.07;;;65.65;;
70075;SDS011;63241;51.056;3.698;2023-05-19T08:12:25;85.17;;;77.12;;
70075;SDS011;63241;51.056;3.698;2023-05-19T08:15:11;82.62;;;74.35;;
70075;SDS011;63241;51.056;3.698;2023-05-19T08:18:03;70.45;;;63.28;;
70075;SDS011;63241;51.056;3.698;2023-05-19T08:24:17;82.72;;;74.55;;
70075;SDS011;63241;51.056;3.698;2023-05-19T08:27:03;67.60;;;60.75;;
70075;SDS011;63241;51.056;3.698;2023-05-19T08:29:50;43.40;;;39.05;;
70075;SDS011;63241;51.056;3.698;2023-05-19T08:32:36;27.82;;;25.10;;
70075;SDS011;63241;51.056;3.698;2023-05-19T08:35:22;23.15;;;20.60;;
70075;SDS011;63241;51.056;3.698;2023-05-19T08:38:09;22.25;;;19.82;;
70075;SDS011;63241;51.056;3.698;2023-05-19T08:40:55;27.87;;;24.85;;
70075;SDS011;63241;51.056;3.698;2023-05-19T08:43:41;22.48;;;20.10;;
70075;SDS011;63241;51.056;3.698;2023-05-19T08:46:28;24.60;;;22.02;;
70075;SDS011;63241;51.056;3.698;2023-05-19T08:49:15;23.22;;;20.77;;
70075;SDS011;63241;51.056;3.698;2023-05-19T08:55:07;22.58;;;19.05;;
70075;SDS011;63241;51.056;3.698;2023-05-19T08:57:55;24.27;;;19.80;;
70075;SDS011;63241;51.056;3.698;2023-05-19T09:00:42;25.37;;;22.55;;
70075;SDS011;63241;51.056;3.698;2023-05-19T09:03:28;27.10;;;24.30;;
70075;SDS011;63241;51.056;3.698;2023-05-19T09:06:16;28.15;;;25.25;;
70075;SDS011;63241;51.056;3.698;2023-05-19T09:09:03;28.00;;;23.20;;
70075;SDS011;63241;51.056;3.698;2023-05-19T09:11:49;26.12;;;22.15;;
70075;SDS011;63241;51.056;3.698;2023-05-19T09:14:36;25.08;;;21.00;;
70075;SDS011;63241;51.056;3.698;2023-05-19T09:17:23;26.02;;;22.52;;
70075;SDS011;63241;51.056;3.698;2023-05-19T09:20:09;27.05;;;21.70;;
70075;SDS011;63241;51.056;3.698;2023-05-19T09:22:56;30.02;;;24.05;;
70075;SDS011;63241;51.056;3.698;2023-05-19T09:28:35;26.70;;;22.02;;
70075;SDS011;63241;51.056;3.698;2023-05-19T09:31:22;23.22;;;20.20;;
70075;SDS011;63241;51.056;3.698;2023-05-19T09:34:11;21.52;;;18.60;;
70075;SDS011;63241;51.056;3.698;2023-05-19T09:36:58;23.52;;;20.97;;
70075;SDS011;63241;51.056;3.698;2023-05-19T09:39:44;24.15;;;20.27;;
70075;SDS011;63241;51.056;3.698;2023-05-19T09:42:33;24.65;;;21.77;;
70075;SDS011;63241;51.056;3.698;2023-05-19T09:45:25;24.10;;;20.37;;
70075;SDS011;63241;51.056;3.698;2023-05-19T09:48:15;24.52;;;21.97;;
70075;SDS011;63241;51.056;3.698;2023-05-19T09:51:02;23.10;;;18.15;;
70075;SDS011;63241;51.056;3.698;2023-05-19T09:53:51;25.17;;;18.02;;
70075;SDS011;63241;51.056;3.698;2023-05-19T09:56:37;23.12;;;14.93;;
70075;SDS011;63241;51.056;3.698;2023-05-19T09:59:24;16.82;;;13.70;;
70075;SDS011;63241;51.056;3.698;2023-05-19T10:02:14;15.08;;;12.00;;
70075;SDS011;63241;51.056;3.698;2023-05-19T10:05:01;14.18;;;11.70;;
70075;SDS011;63241;51.056;3.698;2023-05-19T10:07:49;15.78;;;10.35;;
70075;SDS011;63241;51.056;3.698;2023-05-19T10:10:38;16.23;;;10.93;;
70075;SDS011;63241;51.056;3.698;2023-05-19T10:13:24;12.35;;;9.35;;
70075;SDS011;63241;51.056;3.698;2023-05-19T10:16:13;15.80;;;11.57;;
70075;SDS011;63241;51.056;3.698;2023-05-19T10:19:00;16.00;;;11.20;;
70075;SDS011;63241;51.056;3.698;2023-05-19T10:21:47;15.38;;;11.05;;
70075;SDS011;63241;51.056;3.698;2023-05-19T10:24:38;16.05;;;8.43;;
70075;SDS011;63241;51.056;3.698;2023-05-19T10:27:24;9.90;;;7.03;;
70075;SDS011;63241;51.056;3.698;2023-05-19T10:30:13;8.95;;;5.97;;
70075;SDS011;63241;51.056;3.698;2023-05-19T10:33:02;12.77;;;6.80;;
70075;SDS011;63241;51.056;3.698;2023-05-19T10:38:55;15.30;;;6.95;;
70075;SDS011;63241;51.056;3.698;2023-05-19T10:42:06;14.47;;;7.05;;
70075;SDS011;63241;51.056;3.698;2023-05-19T10:48:01;11.68;;;6.60;;
70075;SDS011;63241;51.056;3.698;2023-05-19T10:50:51;13.32;;;7.35;;
70075;SDS011;63241;51.056;3.698;2023-05-19T10:53:41;15.32;;;6.70;;
70075;SDS011;63241;51.056;3.698;2023-05-19T10:56:31;13.03;;;6.87;;
70075;SDS011;63241;51.056;3.698;2023-05-19T10:59:29;15.05;;;6.42;;
70075;SDS011;63241;51.056;3.698;2023-05-19T11:02:36;10.70;;;5.70;;
70075;SDS011;63241;51.056;3.698;2023-05-19T11:05:27;12.05;;;4.67;;
70075;SDS011;63241;51.056;3.698;2023-05-19T11:08:14;9.93;;;4.50;;
70075;SDS011;63241;51.056;3.698;2023-05-19T11:11:18;9.80;;;4.50;;
70075;SDS011;63241;51.056;3.698;2023-05-19T11:14:01;9.08;;;5.35;;
70075;SDS011;63241;51.056;3.698;2023-05-19T11:16:49;16.02;;;4.75;;
70075;SDS011;63241;51.056;3.698;2023-05-19T11:19:37;12.05;;;4.37;;
70075;SDS011;63241;51.056;3.698;2023-05-19T11:22:26;11.43;;;4.67;;
70075;SDS011;63241;51.056;3.698;2023-05-19T11:25:12;9.85;;;3.70;;
70075;SDS011;63241;51.056;3.698;2023-05-19T11:28:01;11.22;;;3.55;;
70075;SDS011;63241;51.056;3.698;2023-05-19T11:30:48;8.18;;;3.55;;
70075;SDS011;63241;51.056;3.698;2023-05-19T11:33:35;9.53;;;3.47;;
70075;SDS011;63241;51.056;3.698;2023-05-19T11:36:21;7.28;;;4.12;;
70075;SDS011;63241;51.056;3.698;2023-05-19T11:39:08;9.20;;;4.37;;
70075;SDS011;63241;51.056;3.698;2023-05-19T11:41:55;7.47;;;3.77;;
70075;SDS011;63241;51.056;3.698;2023-05-19T11:44:42;8.73;;;3.80;;
70075;SDS011;63241;51.056;3.698;2023-05-19T11:47:31;11.22;;;4.45;;
70075;SDS011;63241;51.056;3.698;2023-05-19T11:50:17;7.08;;;3.90;;
70075;SDS011;63241;51.056;3.698;2023-05-19T11:53:04;8.65;;;4.15;;
70075;SDS011;63241;51.056;3.698;2023-05-19T11:55:50;8.93;;;4.72;;
70075;SDS011;63241;51.056;3.698;2023-05-19T11:58:36;6.95;;;4.03;;
70075;SDS011;63241;51.056;3.698;2023-05-19T12:01:23;10.25;;;4.05;;
70075;SDS011;63241;51.056;3.698;2023-05-19T12:04:10;7.35;;;4.42;;
70075;SDS011;63241;51.056;3.698;2023-05-19T12:06:56;8.35;;;4.50;;
70075;SDS011;63241;51.056;3.698;2023-05-19T12:09:43;6.92;;;4.37;;
70075;SDS011;63241;51.056;3.698;2023-05-19T12:12:30;9.23;;;5.03;;
70075;SDS011;63241;51.056;3.698;2023-05-19T12:15:24;10.40;;;4.70;;
70075;SDS011;63241;51.056;3.698;2023-05-19T12:18:07;11.70;;;4.60;;
70075;SDS011;63241;51.056;3.698;2023-05-19T12:20:53;9.75;;;4.40;;
70075;SDS011;63241;51.056;3.698;2023-05-19T12:23:39;11.12;;;4.60;;
70075;SDS011;63241;51.056;3.698;2023-05-19T12:26:26;10.08;;;4.40;;
70075;SDS011;63241;51.056;3.698;2023-05-19T12:29:13;8.48;;;4.95;;
70075;SDS011;63241;51.056;3.698;2023-05-19T12:31:59;7.72;;;4.28;;
70075;SDS011;63241;51.056;3.698;2023-05-19T12:34:46;8.90;;;4.60;;
70075;SDS011;63241;51.056;3.698;2023-05-19T12:37:32;8.90;;;4.50;;
70075;SDS011;63241;51.056;3.698;2023-05-19T12:40:18;9.65;;;5.05;;
70075;SDS011;63241;51.056;3.698;2023-05-19T12:43:05;11.15;;;5.12;;
70075;SDS011;63241;51.056;3.698;2023-05-19T12:45:52;7.17;;;4.50;;
70075;SDS011;63241;51.056;3.698;2023-05-19T12:48:40;7.65;;;4.50;;
70075;SDS011;63241;51.056;3.698;2023-05-19T12:51:27;10.88;;;5.72;;
70075;SDS011;63241;51.056;3.698;2023-05-19T12:54:17;17.73;;;6.85;;
70075;SDS011;63241;51.056;3.698;2023-05-19T12:57:06;9.00;;;5.03;;
70075;SDS011;63241;51.056;3.698;2023-05-19T12:59:58;11.25;;;4.78;;
70075;SDS011;63241;51.056;3.698;2023-05-19T13:03:00;7.05;;;4.30;;
70075;SDS011;63241;51.056;3.698;2023-05-19T13:05:49;7.75;;;4.25;;
70075;SDS011;63241;51.056;3.698;2023-05-19T13:08:35;8.83;;;4.05;;
70075;SDS011;63241;51.056;3.698;2023-05-19T13:11:23;8.55;;;3.72;;
70075;SDS011;63241;51.056;3.698;2023-05-19T13:14:10;8.50;;;3.98;;
70075;SDS011;63241;51.056;3.698;2023-05-19T13:16:59;7.58;;;4.85;;
70075;SDS011;63241;51.056;3.698;2023-05-19T13:19:45;9.50;;;4.17;;
70075;SDS011;63241;51.056;3.698;2023-05-19T13:22:31;8.65;;;4.87;;
70075;SDS011;63241;51.056;3.698;2023-05-19T13:25:17;11.53;;;5.60;;
70075;SDS011;63241;51.056;3.698;2023-05-19T13:28:04;14.18;;;5.60;;
70075;SDS011;63241;51.056;3.698;2023-05-19T13:30:51;8.93;;;5.40;;
70075;SDS011;63241;51.056;3.698;2023-05-19T13:33:38;12.90;;;4.75;;
70075;SDS011;63241;51.056;3.698;2023-05-19T13:36:24;10.60;;;4.33;;
70075;SDS011;63241;51.056;3.698;2023-05-19T13:39:13;15.03;;;4.97;;
70075;SDS011;63241;51.056;3.698;2023-05-19T13:41:59;12.63;;;4.80;;
70075;SDS011;63241;51.056;3.698;2023-05-19T13:44:45;18.35;;;5.60;;
70075;SDS011;63241;51.056;3.698;2023-05-19T13:47:31;11.05;;;4.62;;
70075;SDS011;63241;51.056;3.698;2023-05-19T13:50:18;11.30;;;4.65;;
70075;SDS011;63241;51.056;3.698;2023-05-19T13:53:05;6.95;;;4.03;;
70075;SDS011;63241;51.056;3.698;2023-05-19T13:55:51;9.28;;;5.05;;
70075;SDS011;63241;51.056;3.698;2023-05-19T13:58:39;8.93;;;3.70;;
70075;SDS011;63241;51.056;3.698;2023-05-19T14:01:26;10.08;;;4.62;;
70075;SDS011;63241;51.056;3.698;2023-05-19T14:04:12;15.90;;;5.15;;
70075;SDS011;63241;51.056;3.698;2023-05-19T14:07:01;10.35;;;4.92;;
70075;SDS011;63241;51.056;3.698;2023-05-19T14:09:47;10.50;;;5.00;;
70075;SDS011;63241;51.056;3.698;2023-05-19T14:12:34;14.38;;;5.28;;
70075;SDS011;63241;51.056;3.698;2023-05-19T14:15:21;12.30;;;4.78;;
70075;SDS011;63241;51.056;3.698;2023-05-19T14:18:07;13.20;;;3.75;;
70075;SDS011;63241;51.056;3.698;2023-05-19T14:20:53;19.35;;;6.15;;
70075;SDS011;63241;51.056;3.698;2023-05-19T14:23:39;13.62;;;5.08;;
70075;SDS011;63241;51.056;3.698;2023-05-19T14:26:25;17.87;;;4.22;;
70075;SDS011;63241;51.056;3.698;2023-05-19T14:29:12;10.35;;;3.90;;
70075;SDS011;63241;51.056;3.698;2023-05-19T14:31:58;11.90;;;4.05;;
70075;SDS011;63241;51.056;3.698;2023-05-19T14:34:45;10.28;;;4.40;;
70075;SDS011;63241;51.056;3.698;2023-05-19T14:37:33;11.35;;;4.22;;
70075;SDS011;63241;51.056;3.698;2023-05-19T14:43:15;13.20;;;4.15;;
70075;SDS011;63241;51.056;3.698;2023-05-19T14:46:01;10.72;;;3.77;;
70075;SDS011;63241;51.056;3.698;2023-05-19T14:48:48;10.23;;;3.80;;
70075;SDS011;63241;51.056;3.698;2023-05-19T14:51:34;11.97;;;5.35;;
70075;SDS011;63241;51.056;3.698;2023-05-19T14:54:20;10.65;;;4.05;;
70075;SDS011;63241;51.056;3.698;2023-05-19T14:57:26;9.18;;;4.47;;
70075;SDS011;63241;51.056;3.698;2023-05-19T15:00:17;9.73;;;4.22;;
70075;SDS011;63241;51.056;3.698;2023-05-19T15:03:04;13.08;;;4.85;;
70075;SDS011;63241;51.056;3.698;2023-05-19T15:05:51;16.48;;;7.50;;
70075;SDS011;63241;51.056;3.698;2023-05-19T15:08:39;11.93;;;4.78;;
70075;SDS011;63241;51.056;3.698;2023-05-19T15:15:02;11.38;;;4.30;;
70075;SDS011;63241;51.056;3.698;2023-05-19T15:17:49;13.30;;;4.53;;
70075;SDS011;63241;51.056;3.698;2023-05-19T15:20:35;8.88;;;3.77;;
70075;SDS011;63241;51.056;3.698;2023-05-19T15:26:37;9.43;;;3.83;;
70075;SDS011;63241;51.056;3.698;2023-05-19T15:29:24;9.83;;;4.67;;
70075;SDS011;63241;51.056;3.698;2023-05-19T15:32:10;14.10;;;4.83;;
70075;SDS011;63241;51.056;3.698;2023-05-19T15:34:56;13.13;;;4.85;;
70075;SDS011;63241;51.056;3.698;2023-05-19T15:43:53;9.40;;;3.62;;
70075;SDS011;63241;51.056;3.698;2023-05-19T15:46:40;9.95;;;3.50;;
70075;SDS011;63241;51.056;3.698;2023-05-19T15:56:15;9.65;;;3.77;;
70075;SDS011;63241;51.056;3.698;2023-05-19T15:59:02;8.53;;;3.85;;
70075;SDS011;63241;51.056;3.698;2023-05-19T16:01:48;9.43;;;4.20;;
70075;SDS011;63241;51.056;3.698;2023-05-19T16:11:23;9.08;;;4.20;;
70075;SDS011;63241;51.056;3.698;2023-05-19T16:14:09;17.00;;;4.60;;
70075;SDS011;63241;51.056;3.698;2023-05-19T16:17:15;12.55;;;4.85;;
70075;SDS011;63241;51.056;3.698;2023-05-19T16:23:17;13.95;;;5.17;;
70075;SDS011;63241;51.056;3.698;2023-05-19T16:26:03;16.12;;;5.37;;
70075;SDS011;63241;51.056;3.698;2023-05-19T16:28:49;12.53;;;5.10;;
70075;SDS011;63241;51.056;3.698;2023-05-19T16:37:45;16.07;;;4.65;;
70075;SDS011;63241;51.056;3.698;2023-05-19T16:40:32;13.60;;;4.80;;
70075;SDS011;63241;51.056;3.698;2023-05-19T16:43:18;15.78;;;4.75;;
70075;SDS011;63241;51.056;3.698;2023-05-19T16:46:11;11.63;;;4.58;;
70075;SDS011;63241;51.056;3.698;2023-05-19T16:49:17;12.63;;;4.75;;
70075;SDS011;63241;51.056;3.698;2023-05-19T16:52:03;15.20;;;5.83;;
70075;SDS011;63241;51.056;3.698;2023-05-19T16:54:49;15.15;;;4.25;;
70075;SDS011;63241;51.056;3.698;2023-05-19T17:01:24;17.10;;;5.15;;
70075;SDS011;63241;51.056;3.698;2023-05-19T17:04:25;15.05;;;4.03;;
70075;SDS011;63241;51.056;3.698;2023-05-19T17:07:14;12.40;;;4.58;;
70075;SDS011;63241;51.056;3.698;2023-05-19T17:10:01;17.02;;;5.62;;
70075;SDS011;63241;51.056;3.698;2023-05-19T17:19:28;14.00;;;4.40;;
70075;SDS011;63241;51.056;3.698;2023-05-19T17:22:14;15.68;;;4.85;;
70075;SDS011;63241;51.056;3.698;2023-05-19T17:31:34;16.40;;;4.67;;
70075;SDS011;63241;51.056;3.698;2023-05-19T17:34:20;17.00;;;4.95;;
70075;SDS011;63241;51.056;3.698;2023-05-19T17:37:06;21.90;;;5.10;;
70075;SDS011;63241;51.056;3.698;2023-05-19T17:40:11;18.15;;;5.28;;
70075;SDS011;63241;51.056;3.698;2023-05-19T17:46:03;20.75;;;5.37;;
70075;SDS011;63241;51.056;3.698;2023-05-19T17:48:49;16.90;;;5.40;;
70075;SDS011;63241;51.056;3.698;2023-05-19T17:51:36;17.25;;;4.80;;
70075;SDS011;63241;51.056;3.698;2023-05-19T18:01:07;15.18;;;4.70;;
70075;SDS011;63241;51.056;3.698;2023-05-19T18:03:53;12.18;;;5.00;;
70075;SDS011;63241;51.056;3.698;2023-05-19T18:13:06;13.68;;;4.67;;
70075;SDS011;63241;51.056;3.698;2023-05-19T18:15:53;17.85;;;5.95;;
70075;SDS011;63241;51.056;3.698;2023-05-19T18:18:40;19.32;;;5.78;;
70075;SDS011;63241;51.056;3.698;2023-05-19T18:27:58;12.18;;;5.67;;
70075;SDS011;63241;51.056;3.698;2023-05-19T18:30:44;13.85;;;5.10;;
70075;SDS011;63241;51.056;3.698;2023-05-19T18:40:27;16.50;;;4.95;;
70075;SDS011;63241;51.056;3.698;2023-05-19T18:43:15;18.15;;;5.10;;
70075;SDS011;63241;51.056;3.698;2023-05-19T18:46:02;16.75;;;5.75;;
70075;SDS011;63241;51.056;3.698;2023-05-19T18:55:33;20.12;;;5.87;;
70075;SDS011;63241;51.056;3.698;2023-05-19T18:58:19;20.57;;;5.10;;
70075;SDS011;63241;51.056;3.698;2023-05-19T19:07:39;30.52;;;8.40;;
70075;SDS011;63241;51.056;3.698;2023-05-19T19:10:26;18.45;;;5.35;;
70075;SDS011;63241;51.056;3.698;2023-05-19T19:13:14;18.12;;;5.53;;
70075;SDS011;63241;51.056;3.698;2023-05-19T19:22:48;16.62;;;5.20;;
70075;SDS011;63241;51.056;3.698;2023-05-19T19:25:35;22.75;;;6.70;;
70075;SDS011;63241;51.056;3.698;2023-05-19T19:34:35;18.98;;;5.28;;
70075;SDS011;63241;51.056;3.698;2023-05-19T19:37:21;25.35;;;7.00;;
70075;SDS011;63241;51.056;3.698;2023-05-19T19:40:07;17.12;;;5.80;;
70075;SDS011;63241;51.056;3.698;2023-05-19T19:49:04;20.30;;;6.15;;
70075;SDS011;63241;51.056;3.698;2023-05-19T19:51:50;18.73;;;5.15;;
70075;SDS011;63241;51.056;3.698;2023-05-19T19:54:37;21.05;;;6.00;;
70075;SDS011;63241;51.056;3.698;2023-05-19T20:01:19;21.23;;;6.12;;
70075;SDS011;63241;51.056;3.698;2023-05-19T20:04:07;24.92;;;6.25;;
70075;SDS011;63241;51.056;3.698;2023-05-19T20:06:54;22.65;;;5.15;;
70075;SDS011;63241;51.056;3.698;2023-05-19T20:15:54;14.73;;;5.47;;
70075;SDS011;63241;51.056;3.698;2023-05-19T20:18:41;21.77;;;7.83;;
70075;SDS011;63241;51.056;3.698;2023-05-19T20:21:27;19.80;;;6.75;;
70075;SDS011;63241;51.056;3.698;2023-05-19T20:30:54;17.87;;;5.50;;
70075;SDS011;63241;51.056;3.698;2023-05-19T20:33:40;17.55;;;5.72;;
70075;SDS011;63241;51.056;3.698;2023-05-19T20:45:58;17.25;;;8.00;;
70075;SDS011;63241;51.056;3.698;2023-05-19T20:48:46;16.37;;;6.25;;
70075;SDS011;63241;51.056;3.698;2023-05-19T20:51:32;21.45;;;6.70;;
70075;SDS011;63241;51.056;3.698;2023-05-19T21:01:03;28.42;;;11.05;;
70075;SDS011;63241;51.056;3.698;2023-05-19T21:03:49;24.20;;;8.10;;
70075;SDS011;63241;51.056;3.698;2023-05-19T21:12:57;22.27;;;6.97;;
70075;SDS011;63241;51.056;3.698;2023-05-19T21:15:43;19.52;;;6.58;;
70075;SDS011;63241;51.056;3.698;2023-05-19T21:18:30;17.12;;;6.42;;
70075;SDS011;63241;51.056;3.698;2023-05-19T21:28:05;18.80;;;7.75;;